»·PEaware :: N2102W KONT-KSMO

N2102W :: KONT-KSMO

FLIGHT INFORMATION

Flight Status: Arrived
Operator: Privately registered:
United States
More flights under this callsign
Pilot: Eric G. (5941)
Aircraft: Cessna 525C Citation CJ4
(C25C)
More flights by this aircraft type
Origin: KONT Ontario Intl
United States
Destination: KSMO Santa Monica Mun
United States
More flights between these airports :: More routes between these airports
Route: +PDZ V186 DARTS
File this flight plan on PilotEdge
Remarks: na
Altitude:
(Current/Filed)
6,000ft
Speed:
(Current/Filed)
250kts
Departed: 13-Sep-20 05:34 PM
Arrived: 13-Sep-20 05:49 PM
Distance/Time
Traveled:
42nm/0:15
Distance/Time
To Go:
Arrived

Flight Plot

Page will automatically refresh every two minutes.


Map Options




Map Legend


Flown Route
Filed Route
Departure Airport
Arrival Airport
Navaid (VOR, NDB)
Fix

Horizontal Profiles

Position Reports

Time Latitude Longitude Heading Altitude Ground
Speed
13-Sep-20 17:11 34.059674 -117.585983 0 939ft 0kts
13-Sep-20 17:12 34.059674 -117.585983 0 939ft 0kts
13-Sep-20 17:13 34.059674 -117.585983 0 939ft 0kts
13-Sep-20 17:14 34.059674 -117.585983 0 939ft 0kts
13-Sep-20 17:15 34.059674 -117.585983 0 939ft 0kts
13-Sep-20 17:16 34.059674 -117.585983 0 939ft 0kts
13-Sep-20 17:17 34.059674 -117.585983 0 939ft 0kts
13-Sep-20 17:17 34.059600 -117.585796 178 939ft 3kts
13-Sep-20 17:18 34.059536 -117.585795 179 939ft 0kts
13-Sep-20 17:20 34.059536 -117.585795 179 939ft 0kts
13-Sep-20 17:20 34.059536 -117.585795 179 939ft 0kts
13-Sep-20 17:21 34.059536 -117.585795 179 939ft 0kts
13-Sep-20 17:23 34.059536 -117.585795 179 939ft 0kts
13-Sep-20 17:23 34.059536 -117.585795 179 939ft 0kts
13-Sep-20 17:24 34.059536 -117.585795 179 939ft 0kts
13-Sep-20 17:25 34.059536 -117.585795 179 939ft 0kts
13-Sep-20 17:26 34.059536 -117.585795 179 939ft 0kts
13-Sep-20 17:27 34.059536 -117.585795 179 939ft 0kts
13-Sep-20 17:28 34.059536 -117.585795 179 939ft 0kts
13-Sep-20 17:29 34.058958 -117.583776 90 936ft 10kts
13-Sep-20 17:30 34.057810 -117.582720 181 935ft 0kts
13-Sep-20 17:31 34.057810 -117.582720 181 935ft 0kts
13-Sep-20 17:32 34.057805 -117.582720 181 935ft 1kts
13-Sep-20 17:33 34.056893 -117.589884 268 939ft 138kts
13-Sep-20 17:34 34.056647 -117.655627 269 2871ft 230kts
13-Sep-20 17:35 34.051709 -117.736984 269 3934ft 276kts
13-Sep-20 17:36 34.054417 -117.823894 272 4923ft 249kts
13-Sep-20 17:37 34.078333 -117.904587 296 5912ft 282kts
13-Sep-20 17:38 34.095189 -117.945844 292 5947ft 271kts
13-Sep-20 17:39 34.105472 -118.026776 276 5955ft 259kts
13-Sep-20 17:40 34.119234 -118.104403 284 5953ft 222kts
13-Sep-20 17:41 34.133853 -118.171164 284 5955ft 209kts
13-Sep-20 17:42 34.148703 -118.234945 284 5960ft 203kts
13-Sep-20 17:43 34.138969 -118.294199 234 5953ft 190kts
13-Sep-20 17:44 34.102922 -118.334349 218 4287ft 178kts
13-Sep-20 17:45 34.071019 -118.370677 225 2270ft 151kts
13-Sep-20 17:46 34.046363 -118.406779 230 833ft 203kts
13-Sep-20 17:47 34.020842 -118.445363 226 231ft 108kts
13-Sep-20 17:48 34.013579 -118.454872 312 145ft 0kts
13-Sep-20 17:49 34.014332 -118.454203 45 147ft 8kts
13-Sep-20 17:50 34.015930 -118.452296 44 152ft 13kts
13-Sep-20 17:51 34.018062 -118.450246 70 159ft 0kts
13-Sep-20 17:52 34.018062 -118.450246 70 159ft 0kts
13-Sep-20 17:53 34.018062 -118.450246 70 159ft 0kts
13-Sep-20 17:54 34.018062 -118.450246 70 159ft 0kts
13-Sep-20 17:55 34.018062 -118.450246 70 159ft 0kts
13-Sep-20 17:56 34.018062 -118.450246 70 159ft 0kts
13-Sep-20 17:57 34.018062 -118.450246 70 159ft 0kts
13-Sep-20 17:58 34.018062 -118.450246 70 159ft 0kts
13-Sep-20 17:59 34.018062 -118.450246 70 159ft 0kts
13-Sep-20 18:00 34.018062 -118.450246 70 159ft 0kts
13-Sep-20 18:01 34.018062 -118.450246 70 159ft 0kts

Navigation Log

Ident Type
Flight plan parsing failed, navigation log unavailable